Terminal Aerodrome Forecast
Issued by NWS Charleston, WV

Current Version | Previous Version | Graphics & Text | Print | Product List | Glossary On
Versions: 1 2 3 4 5 6 7 8 9 10 11 12 13 14 15 16 17 18 19 20 21 22 23 24 25 26 27
000
FTUS41 KRLX 130500
TAFPKB
TAF
KPKB 130540Z 1306/1406 00000KT P6SM OVC025
      TEMPO 1306/1309 SCT025 OVC050
     FM131100 VRB03KT 6SM BR OVC025
     FM131500 30006KT P6SM OVC020
     FM131600 30006KT P6SM BKN020
     FM131800 30007KT P6SM BKN025
     FM132100 31007KT P6SM SCT030=

USA.gov is the U.S. government's official web portal to all federal, state and local government web resources and services.